Time,TemperatureF,DewpointF,PressureIn,WindDirection,WindDirectionDegrees,WindSpeedMPH,WindSpeedGustMPH,Humidity,HourlyPrecipIn,Conditions,Clouds,dailyrainin,SoftwareType,DateUTC
2013-01-21 00:02:00,16.3,5.8,30.35,NNE,22,0.0,0.0,63,0.00,,,0.00,WUHU21623XXSP,2013-01-21 08:02:00,
2013-01-21 00:20:00,15.8,5.6,30.35,West,270,0.0,0.0,64,0.00,,,0.00,WUHU21623XXSP,2013-01-21 08:20:00,
2013-01-21 00:25:00,15.6,5.5,30.35,WNW,292,0.0,0.0,64,0.00,,,0.00,WUHU21623XXSP,2013-01-21 08:25:00,
2013-01-21 00:32:00,15.6,5.5,30.35,WNW,292,0.0,0.0,64,0.00,,,0.00,WUHU21623XXSP,2013-01-21 08:32:00,
2013-01-21 00:41:00,15.3,5.2,30.34,WNW,292,0.0,0.0,64,0.00,,,0.00,WUHU21623XXSP,2013-01-21 08:41:00,
2013-01-21 00:50:00,15.1,5.3,30.35,WNW,292,0.0,0.0,65,0.00,,,0.00,WUHU21623XXSP,2013-01-21 08:50:00,
2013-01-21 01:04:00,14.9,5.2,30.35,NW,315,0.0,0.0,65,0.00,,,0.00,WUHU21623XXSP,2013-01-21 09:04:00,
2013-01-21 01:28:00,15.1,6.0,30.35,SSW,202,0.0,0.0,67,0.00,,,0.00,WUHU21623XXSP,2013-01-21 09:28:00,
2013-01-21 01:34:00,15.1,6.0,30.35,NNW,337,0.0,0.0,67,0.00,,,0.00,WUHU21623XXSP,2013-01-21 09:34:00,
2013-01-21 01:46:00,15.1,6.0,30.36,WNW,292,1.3,1.3,67,0.00,,,0.00,WUHU21623XXSP,2013-01-21 09:46:00,
2013-01-21 01:54:00,15.1,6.0,30.35,WNW,292,0.0,1.3,67,0.00,,,0.00,WUHU21623XXSP,2013-01-21 09:54:00,
2013-01-21 01:59:00,15.1,6.0,30.35,WNW,292,0.0,0.0,67,0.00,,,0.00,WUHU21623XXSP,2013-01-21 09:59:00,
2013-01-21 02:04:00,15.1,6.0,30.35,South,180,0.0,0.0,67,0.00,,,0.00,WUHU21623XXSP,2013-01-21 10:04:00,
2013-01-21 02:13:00,15.1,6.4,30.36,West,270,0.0,0.0,68,0.00,,,0.00,WUHU21623XXSP,2013-01-21 10:13:00,
2013-01-21 02:20:00,15.1,6.4,30.36,West,270,0.0,0.0,68,0.00,,,0.00,WUHU21623XXSP,2013-01-21 10:20:00,
2013-01-21 02:25:00,14.9,6.2,30.36,West,270,0.0,0.0,68,0.00,,,0.00,WUHU21623XXSP,2013-01-21 10:25:00,
2013-01-21 02:39:00,14.7,6.0,30.36,SSE,157,0.0,0.0,68,0.00,,,0.00,WUHU21623XXSP,2013-01-21 10:39:00,
2013-01-21 02:45:00,14.5,5.9,30.36,SE,135,0.0,0.0,68,0.00,,,0.00,WUHU21623XXSP,2013-01-21 10:45:00,
2013-01-21 02:51:00,14.4,5.7,30.36,SSE,157,0.0,0.0,68,0.00,,,0.00,WUHU21623XXSP,2013-01-21 10:51:00,
2013-01-21 02:56:00,14.4,5.7,30.36,SSE,157,0.0,0.0,68,0.00,,,0.00,WUHU21623XXSP,2013-01-21 10:56:00,
2013-01-21 03:02:00,14.2,5.6,30.36,NE,45,0.0,0.0,68,0.00,,,0.00,WUHU21623XXSP,2013-01-21 11:02:00,
2013-01-21 03:13:00,14.2,5.9,30.36,SSE,157,0.0,0.0,69,0.00,,,0.00,WUHU21623XXSP,2013-01-21 11:13:00,
2013-01-21 03:26:00,13.8,5.6,30.37,SE,135,0.0,0.0,69,0.00,,,0.00,WUHU21623XXSP,2013-01-21 11:26:00,
2013-01-21 03:31:00,13.8,5.6,30.37,SSW,202,0.0,0.0,69,0.00,,,0.00,WUHU21623XXSP,2013-01-21 11:31:00,
2013-01-21 03:37:00,13.6,5.4,30.36,SW,225,0.0,0.0,69,0.00,,,0.00,WUHU21623XXSP,2013-01-21 11:37:00,
2013-01-21 03:51:00,13.3,5.0,30.35,SSW,202,0.0,0.0,69,0.00,,,0.00,WUHU21623XXSP,2013-01-21 11:51:00,
2013-01-21 03:56:00,13.3,5.0,30.36,South,180,0.0,0.0,69,0.00,,,0.00,WUHU21623XXSP,2013-01-21 11:56:00,
2013-01-21 04:01:00,13.3,5.0,30.36,South,180,0.0,0.0,69,0.00,,,0.00,WUHU21623XXSP,2013-01-21 12:01:00,
2013-01-21 04:09:00,12.9,4.7,30.36,ESE,112,0.0,0.0,69,0.00,,,0.00,WUHU21623XXSP,2013-01-21 12:09:00,
2013-01-21 04:19:00,12.7,4.5,30.35,ESE,112,0.0,0.0,69,0.00,,,0.00,WUHU21623XXSP,2013-01-21 12:19:00,
2013-01-21 04:28:00,12.4,4.1,30.35,SSE,157,0.0,0.0,69,0.00,,,0.00,WUHU21623XXSP,2013-01-21 12:28:00,
2013-01-21 04:34:00,12.2,4.3,30.35,SSE,157,0.0,0.0,70,0.00,,,0.00,WUHU21623XXSP,2013-01-21 12:34:00,
2013-01-21 04:41:00,12.0,4.1,30.35,SE,135,0.0,0.0,70,0.00,,,0.00,WUHU21623XXSP,2013-01-21 12:41:00,
2013-01-21 04:52:00,12.0,4.1,30.35,NE,45,0.0,0.0,70,0.00,,,0.00,WUHU21623XXSP,2013-01-21 12:52:00,
2013-01-21 04:57:00,12.0,4.1,30.35,NE,45,0.0,0.0,70,0.00,,,0.00,WUHU21623XXSP,2013-01-21 12:57:00,
2013-01-21 05:02:00,11.8,3.9,30.35,NE,45,0.0,0.0,70,0.00,,,0.00,WUHU21623XXSP,2013-01-21 13:02:00,
2013-01-21 05:07:00,11.7,3.7,30.34,NE,45,0.0,0.0,70,0.00,,,0.00,WUHU21623XXSP,2013-01-21 13:07:00,
2013-01-21 05:12:00,11.7,3.7,30.34,NE,45,0.0,0.0,70,0.00,,,0.00,WUHU21623XXSP,2013-01-21 13:12:00,
2013-01-21 05:17:00,11.5,3.6,30.34,WNW,292,0.0,0.0,70,0.00,,,0.00,WUHU21623XXSP,2013-01-21 13:17:00,
2013-01-21 05:28:00,11.3,3.7,30.34,North,0,0.0,0.0,71,0.00,,,0.00,WUHU21623XXSP,2013-01-21 13:28:00,
2013-01-21 05:36:00,11.1,3.5,30.34,North,0,0.0,0.0,71,0.00,,,0.00,WUHU21623XXSP,2013-01-21 13:36:00,
2013-01-21 05:41:00,11.1,3.5,30.33,North,0,0.0,0.0,71,0.00,,,0.00,WUHU21623XXSP,2013-01-21 13:41:00,
2013-01-21 05:58:00,10.9,3.3,30.34,North,0,0.0,0.0,71,0.00,,,0.00,WUHU21623XXSP,2013-01-21 13:58:00,
2013-01-21 06:03:00,10.9,3.3,30.34,North,0,0.0,0.0,71,0.00,,,0.00,WUHU21623XXSP,2013-01-21 14:03:00,
2013-01-21 06:17:00,10.8,3.1,30.33,NE,45,0.0,0.0,71,0.00,,,0.00,WUHU21623XXSP,2013-01-21 14:17:00,
2013-01-21 06:26:00,10.6,2.9,30.34,ENE,67,0.0,0.0,71,0.00,,,0.00,WUHU21623XXSP,2013-01-21 14:26:00,
2013-01-21 06:32:00,10.6,2.9,30.34,North,0,0.0,0.0,71,0.00,,,0.00,WUHU21623XXSP,2013-01-21 14:32:00,
2013-01-21 06:45:00,10.6,3.2,30.34,WNW,292,0.0,0.0,72,0.00,,,0.00,WUHU21623XXSP,2013-01-21 14:45:00,
2013-01-21 06:50:00,10.6,3.2,30.34,WNW,292,0.0,0.0,72,0.00,,,0.00,WUHU21623XXSP,2013-01-21 14:50:00,
2013-01-21 07:05:00,10.2,2.9,30.34,NW,315,0.0,0.0,72,0.00,,,0.00,WUHU21623XXSP,2013-01-21 15:05:00,
2013-01-21 07:10:00,10.2,2.9,30.34,NW,315,0.0,0.0,72,0.00,,,0.00,WUHU21623XXSP,2013-01-21 15:10:00,
2013-01-21 07:28:00,10.2,2.9,30.35,SE,135,0.0,0.0,72,0.00,,,0.00,WUHU21623XXSP,2013-01-21 15:28:00,
2013-01-21 07:33:00,10.2,3.2,30.34,SE,135,0.0,0.0,73,0.00,,,0.00,WUHU21623XXSP,2013-01-21 15:33:00,
2013-01-21 07:38:00,10.2,3.2,30.35,SE,135,0.0,0.0,73,0.00,,,0.00,WUHU21623XXSP,2013-01-21 15:38:00,
2013-01-21 07:45:00,10.0,3.0,30.35,SSE,157,0.0,0.0,73,0.00,,,0.00,WUHU21623XXSP,2013-01-21 15:45:00,
2013-01-21 07:51:00,10.2,3.2,30.35,SSW,202,0.0,0.0,73,0.00,,,0.00,WUHU21623XXSP,2013-01-21 15:51:00,
2013-01-21 07:56:00,10.2,3.2,30.35,South,180,0.0,0.0,73,0.00,,,0.00,WUHU21623XXSP,2013-01-21 15:56:00,
2013-01-21 08:06:00,10.6,3.8,30.36,SW,225,0.0,0.0,74,0.00,,,0.00,WUHU21623XXSP,2013-01-21 16:06:00,
2013-01-21 08:11:00,10.8,3.8,30.36,SW,225,0.0,0.0,74,0.00,,,0.00,WUHU21623XXSP,2013-01-21 16:11:00,
2013-01-21 08:16:00,11.1,4.4,30.35,SW,225,0.0,0.0,74,0.00,,,0.00,WUHU21623XXSP,2013-01-21 16:16:00,
2013-01-21 08:26:00,12.4,5.9,30.36,SSW,202,0.0,0.0,75,0.00,,,0.00,WUHU21623XXSP,2013-01-21 16:26:00,
2013-01-21 08:31:00,13.3,7.1,30.37,West,270,0.0,0.0,76,0.00,,,0.00,WUHU21623XXSP,2013-01-21 16:31:00,
2013-01-21 09:00:00,18.0,11.0,30.37,West,270,0.0,0.0,76,0.00,,,0.00,WUHU21623XXSP,2013-01-21 17:00:00,
2013-01-21 09:05:00,18.3,11.9,30.37,WSW,247,0.0,0.0,76,0.00,,,0.00,WUHU21623XXSP,2013-01-21 17:05:00,
2013-01-21 09:13:00,20.1,14.0,30.37,WNW,292,0.0,0.0,77,0.00,,,0.00,WUHU21623XXSP,2013-01-21 17:13:00,
2013-01-21 09:18:00,21.0,14.9,30.37,NNW,337,0.0,0.0,77,0.00,,,0.00,WUHU21623XXSP,2013-01-21 17:18:00,
2013-01-21 09:45:00,25.2,18.0,30.37,SW,225,0.0,0.0,74,0.00,,,0.00,WUHU21623XXSP,2013-01-21 17:45:00,
2013-01-21 09:54:00,25.9,18.7,30.37,South,180,0.0,0.0,74,0.00,,,0.00,WUHU21623XXSP,2013-01-21 17:54:00,
2013-01-21 09:59:00,26.4,18.9,30.37,West,270,0.0,0.0,73,0.00,,,0.00,WUHU21623XXSP,2013-01-21 17:59:00,
2013-01-21 10:04:00,26.4,18.6,30.37,SE,135,0.0,0.0,72,0.00,,,0.00,WUHU21623XXSP,2013-01-21 18:04:00,
2013-01-21 10:09:00,26.8,18.9,30.37,SSW,202,0.0,0.0,72,0.00,,,0.00,WUHU21623XXSP,2013-01-21 18:09:00,
2013-01-21 10:15:00,27.3,19.5,30.37,WNW,292,0.0,0.0,72,0.00,,,0.00,WUHU21623XXSP,2013-01-21 18:15:00,
2013-01-21 10:20:00,27.5,19.7,30.37,NW,315,0.0,0.0,72,0.00,,,0.00,WUHU21623XXSP,2013-01-21 18:20:00,
2013-01-21 10:36:00,28.8,20.6,30.37,NNE,22,0.0,0.0,71,0.00,,,0.00,WUHU21623XXSP,2013-01-21 18:36:00,
2013-01-21 10:45:00,29.5,20.9,30.37,West,270,0.0,0.0,70,0.00,,,0.00,WUHU21623XXSP,2013-01-21 18:45:00,
2013-01-21 10:53:00,30.4,21.7,30.36,SW,225,0.0,0.0,70,0.00,,,0.00,WUHU21623XXSP,2013-01-21 18:53:00,
2013-01-21 11:06:00,32.2,23.5,30.36,SSE,157,0.0,0.0,70,0.00,,,0.00,WUHU21623XXSP,2013-01-21 19:06:00,
2013-01-21 11:17:00,34.2,24.1,30.35,SSE,157,0.0,0.0,68,0.00,,,0.00,WUHU21623XXSP,2013-01-21 19:17:00,
2013-01-21 11:25:00,35.2,25.3,30.35,SSW,202,0.0,0.0,67,0.00,,,0.00,WUHU21623XXSP,2013-01-21 19:25:00,
2013-01-21 11:40:00,36.7,26.0,30.34,SSE,157,0.0,0.0,65,0.00,,,0.00,WUHU21623XXSP,2013-01-21 19:40:00,
2013-01-21 11:49:00,38.1,27.3,30.33,WNW,292,0.0,0.0,65,0.00,,,0.00,WUHU21623XXSP,2013-01-21 19:49:00,
2013-01-21 11:54:00,38.8,27.6,30.33,East,90,0.0,0.0,64,0.00,,,0.00,WUHU21623XXSP,2013-01-21 19:54:00,
2013-01-21 11:59:00,39.4,27.7,30.32,WNW,292,0.0,0.0,63,0.00,,,0.00,WUHU21623XXSP,2013-01-21 19:59:00,
2013-01-21 12:21:00,41.4,27.6,30.31,SE,135,0.0,0.0,58,0.00,,,0.00,WUHU21623XXSP,2013-01-21 20:21:00,
2013-01-21 12:26:00,41.5,27.4,30.31,ESE,112,0.0,0.0,57,0.00,,,0.00,WUHU21623XXSP,2013-01-21 20:26:00,
2013-01-21 12:49:00,43.2,28.0,30.30,NE,45,0.0,0.0,55,0.00,,,0.00,WUHU21623XXSP,2013-01-21 20:49:00,
2013-01-21 13:08:00,44.4,28.3,30.29,SSW,202,0.0,0.0,53,0.00,,,0.00,WUHU21623XXSP,2013-01-21 21:08:00,
2013-01-21 13:19:00,45.0,28.4,30.29,West,270,0.0,0.0,52,0.00,,,0.00,WUHU21623XXSP,2013-01-21 21:19:00,
2013-01-21 13:47:00,47.8,29.5,30.28,SSW,202,0.0,0.0,49,0.00,,,0.00,WUHU21623XXSP,2013-01-21 21:47:00,
2013-01-21 13:57:00,48.6,29.1,30.27,SE,135,0.0,0.0,47,0.00,,,0.00,WUHU21623XXSP,2013-01-21 21:57:00,
2013-01-21 14:27:00,47.8,27.4,30.27,WNW,292,0.0,0.0,45,0.00,,,0.00,WUHU21623XXSP,2013-01-21 22:27:00,
2013-01-21 14:32:00,47.1,26.7,30.26,West,270,0.0,0.0,45,0.00,,,0.00,WUHU21623XXSP,2013-01-21 22:32:00,
2013-01-21 14:37:00,46.8,25.8,30.27,WNW,292,0.0,0.0,44,0.00,,,0.00,WUHU21623XXSP,2013-01-21 22:37:00,
2013-01-21 14:43:00,46.0,25.7,30.26,WNW,292,0.0,0.0,45,0.00,,,0.00,WUHU21623XXSP,2013-01-21 22:43:00,
2013-01-21 14:49:00,45.7,25.4,30.26,NNW,337,2.0,2.0,45,0.00,,,0.00,WUHU21623XXSP,2013-01-21 22:49:00,
2013-01-21 15:00:00,44.8,24.1,30.26,SW,225,0.0,0.0,44,0.00,,,0.00,WUHU21623XXSP,2013-01-21 23:00:00,
2013-01-21 15:06:00,44.4,23.7,30.26,WNW,292,0.0,0.0,44,0.00,,,0.00,WUHU21623XXSP,2013-01-21 23:06:00,
2013-01-21 15:13:00,43.7,23.3,30.26,WSW,247,0.0,0.0,44,0.00,,,0.00,WUHU21623XXSP,2013-01-21 23:13:00,
2013-01-21 15:34:00,43.0,23.0,30.26,ESE,112,0.0,0.0,45,0.00,,,0.00,WUHU21623XXSP,2013-01-21 23:34:00,
2013-01-21 15:41:00,42.6,22.6,30.25,WSW,247,0.0,0.0,45,0.00,,,0.00,WUHU21623XXSP,2013-01-21 23:41:00,
2013-01-21 15:56:00,42.1,22.7,30.25,West,270,0.0,0.0,46,0.00,,,0.00,WUHU21623XXSP,2013-01-21 23:56:00,
2013-01-21 16:14:00,41.4,22.0,30.25,South,180,0.0,0.0,46,0.00,,,0.00,WUHU21623XXSP,2013-01-22 00:14:00,
2013-01-21 16:27:00,40.8,21.6,30.25,WNW,292,0.0,0.0,46,0.00,,,0.00,WUHU21623XXSP,2013-01-22 00:27:00,
2013-01-21 16:41:00,40.3,21.5,30.25,West,270,0.0,0.0,47,0.00,,,0.00,WUHU21623XXSP,2013-01-22 00:41:00,
2013-01-21 16:46:00,40.3,21.5,30.25,West,270,0.0,0.0,47,0.00,,,0.00,WUHU21623XXSP,2013-01-22 00:46:00,
2013-01-21 16:53:00,39.6,20.9,30.25,WNW,292,0.0,0.0,47,0.00,,,0.00,WUHU21623XXSP,2013-01-22 00:53:00,
2013-01-21 16:59:00,39.4,20.7,30.25,West,270,0.0,0.0,47,0.00,,,0.00,WUHU21623XXSP,2013-01-22 00:59:00,
2013-01-21 17:04:00,38.8,20.2,30.25,WNW,292,0.0,0.0,47,0.00,,,0.00,WUHU21623XXSP,2013-01-22 01:04:00,
2013-01-21 17:09:00,38.5,19.9,30.26,West,270,0.0,0.0,47,0.00,,,0.00,WUHU21623XXSP,2013-01-22 01:09:00,
2013-01-21 17:17:00,37.6,19.8,30.25,SSE,157,0.0,0.0,48,0.00,,,0.00,WUHU21623XXSP,2013-01-22 01:17:00,
2013-01-21 17:27:00,36.7,18.8,30.26,SW,225,0.0,0.0,48,0.00,,,0.00,WUHU21623XXSP,2013-01-22 01:27:00,
2013-01-21 17:44:00,34.9,17.1,30.26,ENE,67,0.0,0.0,48,0.00,,,0.00,WUHU21623XXSP,2013-01-22 01:44:00,
2013-01-21 17:53:00,34.2,16.4,30.26,NE,45,0.0,0.0,48,0.00,,,0.00,WUHU21623XXSP,2013-01-22 01:53:00,
2013-01-21 18:10:00,32.5,15.4,30.27,NE,45,0.0,0.0,49,0.00,,,0.00,WUHU21623XXSP,2013-01-22 02:10:00,
2013-01-21 18:17:00,31.8,14.8,30.27,WNW,292,0.0,0.0,49,0.00,,,0.00,WUHU21623XXSP,2013-01-22 02:17:00,
2013-01-21 18:27:00,31.1,14.6,30.27,SSE,157,0.0,0.0,50,0.00,,,0.00,WUHU21623XXSP,2013-01-22 02:27:00,
2013-01-21 18:34:00,30.6,14.1,30.27,WSW,247,0.0,0.0,50,0.00,,,0.00,WUHU21623XXSP,2013-01-22 02:34:00,
2013-01-21 18:47:00,29.5,13.6,30.27,SE,135,0.0,0.0,51,0.00,,,0.00,WUHU21623XXSP,2013-01-22 02:47:00,
2013-01-21 18:59:00,28.8,12.9,30.27,East,90,0.0,0.0,51,0.00,,,0.00,WUHU21623XXSP,2013-01-22 02:59:00,
2013-01-21 19:04:00,28.6,13.2,30.27,SE,135,0.0,0.0,52,0.00,,,0.00,WUHU21623XXSP,2013-01-22 03:04:00,
2013-01-21 19:29:00,27.1,12.2,30.28,West,270,0.0,0.0,53,0.00,,,0.00,WUHU21623XXSP,2013-01-22 03:29:00,
2013-01-21 19:51:00,26.4,11.9,30.28,NNE,22,0.0,0.0,54,0.00,,,0.00,WUHU21623XXSP,2013-01-22 03:51:00,
2013-01-21 19:56:00,26.2,11.7,30.27,East,90,0.0,0.0,54,0.00,,,0.00,WUHU21623XXSP,2013-01-22 03:56:00,
2013-01-21 20:06:00,25.7,11.2,30.28,WNW,292,0.0,0.0,54,0.00,,,0.00,WUHU21623XXSP,2013-01-22 04:06:00,
2013-01-21 20:14:00,25.5,11.5,30.28,West,270,0.0,0.0,55,0.00,,,0.00,WUHU21623XXSP,2013-01-22 04:14:00,
2013-01-21 20:27:00,25.0,11.0,30.28,NNE,22,0.0,0.0,55,0.00,,,0.00,WUHU21623XXSP,2013-01-22 04:27:00,
2013-01-21 20:36:00,24.6,10.7,30.28,SW,225,0.0,0.0,55,0.00,,,0.00,WUHU21623XXSP,2013-01-22 04:36:00,
2013-01-21 20:57:00,23.9,10.4,30.28,NE,45,0.0,0.0,56,0.00,,,0.00,WUHU21623XXSP,2013-01-22 04:57:00,
2013-01-21 21:00:00,23.9,10.4,30.28,NE,45,0.0,0.0,56,0.00,,,0.00,WUHU21623XXSP,2013-01-22 05:00:00,
2013-01-21 21:01:00,23.9,10.4,30.28,NE,45,0.0,0.0,56,0.00,,,0.00,WUHU21623XXSP,2013-01-22 05:01:00,
2013-01-21 21:05:00,23.5,10.0,30.29,NE,45,0.0,0.0,56,0.00,,,0.00,WUHU21623XXSP,2013-01-22 05:05:00,
2013-01-21 21:10:00,23.5,10.0,30.29,ENE,67,0.0,0.0,56,0.00,,,0.00,WUHU21623XXSP,2013-01-22 05:10:00,
2013-01-21 21:36:00,22.6,10.0,30.29,ESE,112,0.0,0.0,58,0.00,,,0.00,WUHU21623XXSP,2013-01-22 05:36:00,
2013-01-21 21:41:00,22.5,9.8,30.29,NE,45,0.0,0.0,58,0.00,,,0.00,WUHU21623XXSP,2013-01-22 05:41:00,
2013-01-21 21:53:00,22.1,9.5,30.29,North,0,0.0,0.0,58,0.00,,,0.00,WUHU21623XXSP,2013-01-22 05:53:00,
2013-01-21 22:12:00,21.4,8.8,30.29,NNW,337,0.0,0.0,58,0.00,,,0.00,WUHU21623XXSP,2013-01-22 06:12:00,
2013-01-21 22:18:00,21.2,8.7,30.30,NNW,337,0.0,0.0,58,0.00,,,0.00,WUHU21623XXSP,2013-01-22 06:18:00,
2013-01-21 22:25:00,21.0,8.9,30.30,East,90,0.0,0.0,59,0.00,,,0.00,WUHU21623XXSP,2013-01-22 06:25:00,
2013-01-21 22:30:00,20.8,8.7,30.30,East,90,0.0,0.0,59,0.00,,,0.00,WUHU21623XXSP,2013-01-22 06:30:00,
2013-01-21 22:38:00,20.5,8.4,30.30,ENE,67,0.0,0.0,59,0.00,,,0.00,WUHU21623XXSP,2013-01-22 06:38:00,
2013-01-21 22:57:00,20.1,8.4,30.29,SE,135,0.0,0.0,60,0.00,,,0.00,WUHU21623XXSP,2013-01-22 06:57:00,
2013-01-21 23:02:00,20.1,8.4,30.29,SE,135,0.0,0.0,60,0.00,,,0.00,WUHU21623XXSP,2013-01-22 07:02:00,
2013-01-21 23:27:00,19.4,7.7,30.29,NE,45,0.0,0.0,60,0.00,,,0.00,WUHU21623XXSP,2013-01-22 07:27:00,
2013-01-21 23:32:00,19.2,7.9,30.30,ESE,112,0.0,0.0,61,0.00,,,0.00,WUHU21623XXSP,2013-01-22 07:32:00,
2013-01-21 23:43:00,19.0,7.7,30.29,ENE,67,0.0,0.0,61,0.00,,,0.00,WUHU21623XXSP,2013-01-22 07:43:00,
2013-01-21 23:48:00,19.0,7.7,30.29,SSE,157,0.0,0.0,61,0.00,,,0.00,WUHU21623XXSP,2013-01-22 07:48:00,
2013-01-21 23:58:00,18.7,7.7,30.29,SSE,157,0.0,0.0,62,0.00,,,0.00,WUHU21623XXSP,2013-01-22 07:58:00,